sensor_id;sensor_type;location;lat;lon;timestamp;P1;durP1;ratioP1;P2;durP2;ratioP2
27670;SDS011;15077;49.704;9.908;2023-07-30T00:02:21;2.50;;;1.98;;
27670;SDS011;15077;49.704;9.908;2023-07-30T00:04:47;3.13;;;1.70;;
27670;SDS011;15077;49.704;9.908;2023-07-30T00:07:13;2.45;;;1.60;;
27670;SDS011;15077;49.704;9.908;2023-07-30T00:09:40;2.70;;;1.20;;
27670;SDS011;15077;49.704;9.908;2023-07-30T00:12:06;1.85;;;1.30;;
27670;SDS011;15077;49.704;9.908;2023-07-30T00:14:33;1.85;;;1.27;;
27670;SDS011;15077;49.704;9.908;2023-07-30T00:17:00;1.90;;;1.25;;
27670;SDS011;15077;49.704;9.908;2023-07-30T00:19:30;1.73;;;0.93;;
27670;SDS011;15077;49.704;9.908;2023-07-30T00:21:56;4.15;;;1.00;;
27670;SDS011;15077;49.704;9.908;2023-07-30T00:24:22;1.45;;;0.90;;
27670;SDS011;15077;49.704;9.908;2023-07-30T00:26:48;1.63;;;1.00;;
27670;SDS011;15077;49.704;9.908;2023-07-30T00:29:14;1.92;;;1.08;;
27670;SDS011;15077;49.704;9.908;2023-07-30T00:31:39;1.63;;;0.52;;
27670;SDS011;15077;49.704;9.908;2023-07-30T00:34:05;1.42;;;0.68;;
27670;SDS011;15077;49.704;9.908;2023-07-30T00:36:31;1.35;;;0.80;;
27670;SDS011;15077;49.704;9.908;2023-07-30T00:38:57;2.08;;;1.10;;
27670;SDS011;15077;49.704;9.908;2023-07-30T00:41:25;2.03;;;1.02;;
27670;SDS011;15077;49.704;9.908;2023-07-30T00:43:52;1.65;;;0.63;;
27670;SDS011;15077;49.704;9.908;2023-07-30T00:46:18;1.92;;;0.60;;
27670;SDS011;15077;49.704;9.908;2023-07-30T00:48:44;1.00;;;0.70;;
27670;SDS011;15077;49.704;9.908;2023-07-30T00:51:10;2.95;;;0.90;;
27670;SDS011;15077;49.704;9.908;2023-07-30T00:53:40;0.90;;;0.65;;
27670;SDS011;15077;49.704;9.908;2023-07-30T00:56:06;1.17;;;0.70;;
27670;SDS011;15077;49.704;9.908;2023-07-30T00:58:32;0.80;;;0.40;;
27670;SDS011;15077;49.704;9.908;2023-07-30T01:00:59;1.08;;;0.40;;
27670;SDS011;15077;49.704;9.908;2023-07-30T01:03:25;1.48;;;0.60;;
27670;SDS011;15077;49.704;9.908;2023-07-30T01:05:51;0.85;;;0.50;;
27670;SDS011;15077;49.704;9.908;2023-07-30T01:08:17;3.30;;;0.80;;
27670;SDS011;15077;49.704;9.908;2023-07-30T01:10:43;1.20;;;0.68;;
27670;SDS011;15077;49.704;9.908;2023-07-30T01:13:10;1.35;;;0.60;;
27670;SDS011;15077;49.704;9.908;2023-07-30T01:15:38;1.50;;;0.55;;
27670;SDS011;15077;49.704;9.908;2023-07-30T01:18:06;1.75;;;0.90;;
27670;SDS011;15077;49.704;9.908;2023-07-30T01:20:32;2.20;;;0.70;;
27670;SDS011;15077;49.704;9.908;2023-07-30T01:22:58;3.03;;;1.50;;
27670;SDS011;15077;49.704;9.908;2023-07-30T01:25:25;2.55;;;1.30;;
27670;SDS011;15077;49.704;9.908;2023-07-30T01:27:56;1.58;;;0.93;;
27670;SDS011;15077;49.704;9.908;2023-07-30T01:30:28;2.15;;;0.88;;
27670;SDS011;15077;49.704;9.908;2023-07-30T01:33:00;1.75;;;0.90;;
27670;SDS011;15077;49.704;9.908;2023-07-30T01:35:28;1.58;;;0.90;;
27670;SDS011;15077;49.704;9.908;2023-07-30T01:37:58;1.30;;;0.80;;
27670;SDS011;15077;49.704;9.908;2023-07-30T01:40:28;1.33;;;0.80;;
27670;SDS011;15077;49.704;9.908;2023-07-30T01:42:54;3.90;;;1.27;;
27670;SDS011;15077;49.704;9.908;2023-07-30T01:45:20;1.73;;;0.80;;
27670;SDS011;15077;49.704;9.908;2023-07-30T01:47:46;1.70;;;0.70;;
27670;SDS011;15077;49.704;9.908;2023-07-30T01:50:11;1.60;;;1.00;;
27670;SDS011;15077;49.704;9.908;2023-07-30T01:52:37;8.40;;;0.98;;
27670;SDS011;15077;49.704;9.908;2023-07-30T01:55:03;1.25;;;0.90;;
27670;SDS011;15077;49.704;9.908;2023-07-30T01:57:30;2.00;;;1.08;;
27670;SDS011;15077;49.704;9.908;2023-07-30T01:59:56;1.42;;;0.80;;
27670;SDS011;15077;49.704;9.908;2023-07-30T02:02:22;2.35;;;1.10;;
27670;SDS011;15077;49.704;9.908;2023-07-30T02:04:48;1.98;;;0.93;;
27670;SDS011;15077;49.704;9.908;2023-07-30T02:07:13;2.55;;;1.15;;
27670;SDS011;15077;49.704;9.908;2023-07-30T02:09:39;1.05;;;0.70;;
27670;SDS011;15077;49.704;9.908;2023-07-30T02:12:05;1.50;;;0.80;;
27670;SDS011;15077;49.704;9.908;2023-07-30T02:14:32;1.33;;;0.82;;
27670;SDS011;15077;49.704;9.908;2023-07-30T02:16:59;1.55;;;0.90;;
27670;SDS011;15077;49.704;9.908;2023-07-30T02:19:24;2.38;;;1.30;;
27670;SDS011;15077;49.704;9.908;2023-07-30T02:21:50;4.70;;;1.33;;
27670;SDS011;15077;49.704;9.908;2023-07-30T02:24:16;5.13;;;0.90;;
27670;SDS011;15077;49.704;9.908;2023-07-30T02:26:42;1.73;;;1.20;;
27670;SDS011;15077;49.704;9.908;2023-07-30T02:29:08;3.65;;;1.20;;
27670;SDS011;15077;49.704;9.908;2023-07-30T02:31:34;2.10;;;1.20;;
27670;SDS011;15077;49.704;9.908;2023-07-30T02:33:59;2.42;;;1.60;;
27670;SDS011;15077;49.704;9.908;2023-07-30T02:36:25;2.30;;;1.48;;
27670;SDS011;15077;49.704;9.908;2023-07-30T02:38:51;3.10;;;1.77;;
27670;SDS011;15077;49.704;9.908;2023-07-30T02:41:17;2.50;;;1.40;;
27670;SDS011;15077;49.704;9.908;2023-07-30T02:43:43;1.65;;;1.25;;
27670;SDS011;15077;49.704;9.908;2023-07-30T02:46:09;1.98;;;1.25;;
27670;SDS011;15077;49.704;9.908;2023-07-30T02:48:35;2.25;;;1.48;;
27670;SDS011;15077;49.704;9.908;2023-07-30T02:51:00;2.40;;;1.50;;
27670;SDS011;15077;49.704;9.908;2023-07-30T02:53:26;2.22;;;1.17;;
27670;SDS011;15077;49.704;9.908;2023-07-30T02:55:52;2.72;;;1.20;;
27670;SDS011;15077;49.704;9.908;2023-07-30T02:58:18;2.20;;;1.20;;
27670;SDS011;15077;49.704;9.908;2023-07-30T03:00:44;3.95;;;1.60;;
27670;SDS011;15077;49.704;9.908;2023-07-30T03:03:10;2.72;;;1.73;;
27670;SDS011;15077;49.704;9.908;2023-07-30T03:05:36;3.47;;;1.88;;
27670;SDS011;15077;49.704;9.908;2023-07-30T03:08:02;1.95;;;1.27;;
27670;SDS011;15077;49.704;9.908;2023-07-30T03:10:28;2.17;;;1.60;;
27670;SDS011;15077;49.704;9.908;2023-07-30T03:12:54;1.88;;;1.48;;
27670;SDS011;15077;49.704;9.908;2023-07-30T03:15:20;2.25;;;1.60;;
27670;SDS011;15077;49.704;9.908;2023-07-30T03:17:46;2.53;;;1.88;;
27670;SDS011;15077;49.704;9.908;2023-07-30T03:20:11;2.70;;;1.83;;
27670;SDS011;15077;49.704;9.908;2023-07-30T03:22:37;2.17;;;1.77;;
27670;SDS011;15077;49.704;9.908;2023-07-30T03:25:03;2.22;;;1.90;;
27670;SDS011;15077;49.704;9.908;2023-07-30T03:27:29;2.53;;;1.92;;
27670;SDS011;15077;49.704;9.908;2023-07-30T03:29:55;3.00;;;2.13;;
27670;SDS011;15077;49.704;9.908;2023-07-30T03:32:21;3.00;;;1.92;;
27670;SDS011;15077;49.704;9.908;2023-07-30T03:34:47;2.58;;;1.90;;
27670;SDS011;15077;49.704;9.908;2023-07-30T03:37:13;3.45;;;1.90;;
27670;SDS011;15077;49.704;9.908;2023-07-30T03:39:38;2.38;;;2.03;;
27670;SDS011;15077;49.704;9.908;2023-07-30T03:42:04;2.97;;;2.42;;
27670;SDS011;15077;49.704;9.908;2023-07-30T03:44:30;2.72;;;2.03;;
27670;SDS011;15077;49.704;9.908;2023-07-30T03:46:56;2.83;;;2.00;;
27670;SDS011;15077;49.704;9.908;2023-07-30T03:49:22;3.60;;;1.70;;
27670;SDS011;15077;49.704;9.908;2023-07-30T03:51:47;2.35;;;1.83;;
27670;SDS011;15077;49.704;9.908;2023-07-30T03:54:13;2.38;;;1.80;;
27670;SDS011;15077;49.704;9.908;2023-07-30T03:56:39;2.50;;;1.80;;
27670;SDS011;15077;49.704;9.908;2023-07-30T03:59:05;2.00;;;1.80;;
27670;SDS011;15077;49.704;9.908;2023-07-30T04:01:31;2.17;;;1.63;;
27670;SDS011;15077;49.704;9.908;2023-07-30T04:03:57;2.35;;;1.88;;
27670;SDS011;15077;49.704;9.908;2023-07-30T04:06:23;2.25;;;1.75;;
27670;SDS011;15077;49.704;9.908;2023-07-30T04:08:48;1.95;;;1.50;;
27670;SDS011;15077;49.704;9.908;2023-07-30T04:11:14;1.83;;;1.45;;
27670;SDS011;15077;49.704;9.908;2023-07-30T04:13:40;2.80;;;1.77;;
27670;SDS011;15077;49.704;9.908;2023-07-30T04:16:06;1.75;;;1.20;;
27670;SDS011;15077;49.704;9.908;2023-07-30T04:18:32;1.23;;;1.10;;
27670;SDS011;15077;49.704;9.908;2023-07-30T04:20:59;1.88;;;1.25;;
27670;SDS011;15077;49.704;9.908;2023-07-30T04:23:24;2.58;;;1.30;;
27670;SDS011;15077;49.704;9.908;2023-07-30T04:25:50;1.90;;;1.40;;
27670;SDS011;15077;49.704;9.908;2023-07-30T04:28:16;2.10;;;1.63;;
27670;SDS011;15077;49.704;9.908;2023-07-30T04:30:43;1.45;;;1.27;;
27670;SDS011;15077;49.704;9.908;2023-07-30T04:33:09;2.47;;;1.30;;
27670;SDS011;15077;49.704;9.908;2023-07-30T04:35:35;1.70;;;1.40;;
27670;SDS011;15077;49.704;9.908;2023-07-30T04:38:01;3.40;;;1.63;;
27670;SDS011;15077;49.704;9.908;2023-07-30T04:40:26;1.80;;;1.42;;
27670;SDS011;15077;49.704;9.908;2023-07-30T04:42:52;2.65;;;1.63;;
27670;SDS011;15077;49.704;9.908;2023-07-30T04:45:18;2.30;;;1.63;;
27670;SDS011;15077;49.704;9.908;2023-07-30T04:47:43;2.05;;;1.48;;
27670;SDS011;15077;49.704;9.908;2023-07-30T04:50:09;1.23;;;1.00;;
27670;SDS011;15077;49.704;9.908;2023-07-30T04:52:35;2.00;;;1.58;;
27670;SDS011;15077;49.704;9.908;2023-07-30T04:55:00;2.63;;;1.30;;
27670;SDS011;15077;49.704;9.908;2023-07-30T04:57:26;1.40;;;1.30;;
27670;SDS011;15077;49.704;9.908;2023-07-30T04:59:52;2.53;;;1.27;;
27670;SDS011;15077;49.704;9.908;2023-07-30T05:02:17;3.00;;;1.38;;
27670;SDS011;15077;49.704;9.908;2023-07-30T05:04:43;1.73;;;1.35;;
27670;SDS011;15077;49.704;9.908;2023-07-30T05:07:09;1.85;;;1.10;;
27670;SDS011;15077;49.704;9.908;2023-07-30T05:09:35;2.08;;;1.33;;
27670;SDS011;15077;49.704;9.908;2023-07-30T05:12:01;1.85;;;1.20;;
27670;SDS011;15077;49.704;9.908;2023-07-30T05:14:27;1.60;;;1.20;;
27670;SDS011;15077;49.704;9.908;2023-07-30T05:16:53;2.20;;;1.85;;
27670;SDS011;15077;49.704;9.908;2023-07-30T05:19:18;2.08;;;1.48;;
27670;SDS011;15077;49.704;9.908;2023-07-30T05:21:44;1.95;;;1.20;;
27670;SDS011;15077;49.704;9.908;2023-07-30T05:24:10;2.55;;;1.70;;
27670;SDS011;15077;49.704;9.908;2023-07-30T05:26:36;2.05;;;1.30;;
27670;SDS011;15077;49.704;9.908;2023-07-30T05:29:02;1.42;;;1.15;;
27670;SDS011;15077;49.704;9.908;2023-07-30T05:31:28;2.53;;;1.40;;
27670;SDS011;15077;49.704;9.908;2023-07-30T05:33:54;1.88;;;1.38;;
27670;SDS011;15077;49.704;9.908;2023-07-30T05:36:19;2.20;;;1.70;;
27670;SDS011;15077;49.704;9.908;2023-07-30T05:38:45;1.77;;;1.33;;
27670;SDS011;15077;49.704;9.908;2023-07-30T05:41:11;2.65;;;1.80;;
27670;SDS011;15077;49.704;9.908;2023-07-30T05:43:37;2.22;;;1.85;;
27670;SDS011;15077;49.704;9.908;2023-07-30T05:46:02;2.70;;;1.83;;
27670;SDS011;15077;49.704;9.908;2023-07-30T05:48:28;1.40;;;1.30;;
27670;SDS011;15077;49.704;9.908;2023-07-30T05:50:54;4.10;;;1.98;;
27670;SDS011;15077;49.704;9.908;2023-07-30T05:53:20;1.60;;;1.20;;
27670;SDS011;15077;49.704;9.908;2023-07-30T05:55:45;1.80;;;1.25;;
27670;SDS011;15077;49.704;9.908;2023-07-30T05:58:11;2.22;;;1.60;;
27670;SDS011;15077;49.704;9.908;2023-07-30T06:00:37;2.28;;;1.90;;
27670;SDS011;15077;49.704;9.908;2023-07-30T06:03:02;2.17;;;1.90;;
27670;SDS011;15077;49.704;9.908;2023-07-30T06:05:28;2.30;;;1.50;;
27670;SDS011;15077;49.704;9.908;2023-07-30T06:07:54;1.75;;;1.30;;
27670;SDS011;15077;49.704;9.908;2023-07-30T06:10:20;2.25;;;1.65;;
27670;SDS011;15077;49.704;9.908;2023-07-30T06:12:46;1.75;;;1.45;;
27670;SDS011;15077;49.704;9.908;2023-07-30T06:15:11;2.30;;;1.73;;
27670;SDS011;15077;49.704;9.908;2023-07-30T06:17:37;2.75;;;1.50;;
27670;SDS011;15077;49.704;9.908;2023-07-30T06:20:03;1.80;;;1.50;;
27670;SDS011;15077;49.704;9.908;2023-07-30T06:22:30;2.67;;;1.58;;
27670;SDS011;15077;49.704;9.908;2023-07-30T06:24:55;1.98;;;1.50;;
27670;SDS011;15077;49.704;9.908;2023-07-30T06:27:21;2.95;;;1.70;;
27670;SDS011;15077;49.704;9.908;2023-07-30T06:29:47;3.67;;;1.88;;
27670;SDS011;15077;49.704;9.908;2023-07-30T06:32:13;1.85;;;1.42;;
27670;SDS011;15077;49.704;9.908;2023-07-30T06:34:38;2.65;;;1.42;;
27670;SDS011;15077;49.704;9.908;2023-07-30T06:37:04;2.50;;;1.77;;
27670;SDS011;15077;49.704;9.908;2023-07-30T06:39:30;2.20;;;1.85;;
27670;SDS011;15077;49.704;9.908;2023-07-30T06:41:55;2.35;;;1.40;;
27670;SDS011;15077;49.704;9.908;2023-07-30T06:44:21;2.50;;;1.95;;
27670;SDS011;15077;49.704;9.908;2023-07-30T06:46:49;2.33;;;1.60;;
27670;SDS011;15077;49.704;9.908;2023-07-30T06:49:15;1.98;;;1.73;;
27670;SDS011;15077;49.704;9.908;2023-07-30T06:51:40;2.25;;;1.85;;
27670;SDS011;15077;49.704;9.908;2023-07-30T06:54:06;1.83;;;1.60;;
27670;SDS011;15077;49.704;9.908;2023-07-30T06:56:32;2.10;;;1.63;;
27670;SDS011;15077;49.704;9.908;2023-07-30T06:58:58;2.67;;;1.80;;
27670;SDS011;15077;49.704;9.908;2023-07-30T07:01:23;2.67;;;2.00;;
27670;SDS011;15077;49.704;9.908;2023-07-30T07:03:49;2.83;;;1.80;;
27670;SDS011;15077;49.704;9.908;2023-07-30T07:06:15;1.85;;;1.55;;
27670;SDS011;15077;49.704;9.908;2023-07-30T07:08:40;1.98;;;1.55;;
27670;SDS011;15077;49.704;9.908;2023-07-30T07:11:06;2.70;;;1.70;;
27670;SDS011;15077;49.704;9.908;2023-07-30T07:13:32;2.55;;;1.70;;
27670;SDS011;15077;49.704;9.908;2023-07-30T07:15:57;2.42;;;1.73;;
27670;SDS011;15077;49.704;9.908;2023-07-30T07:18:23;2.38;;;1.60;;
27670;SDS011;15077;49.704;9.908;2023-07-30T07:20:49;1.55;;;1.33;;
27670;SDS011;15077;49.704;9.908;2023-07-30T07:23:15;2.65;;;2.03;;
27670;SDS011;15077;49.704;9.908;2023-07-30T07:25:40;3.15;;;1.75;;
27670;SDS011;15077;49.704;9.908;2023-07-30T07:28:06;2.03;;;1.58;;
27670;SDS011;15077;49.704;9.908;2023-07-30T07:30:34;1.80;;;1.40;;
27670;SDS011;15077;49.704;9.908;2023-07-30T07:33:04;1.80;;;1.30;;
27670;SDS011;15077;49.704;9.908;2023-07-30T07:35:36;1.60;;;1.35;;
27670;SDS011;15077;49.704;9.908;2023-07-30T07:38:02;2.00;;;1.52;;
27670;SDS011;15077;49.704;9.908;2023-07-30T07:40:28;2.95;;;1.75;;
27670;SDS011;15077;49.704;9.908;2023-07-30T07:42:54;1.83;;;1.50;;
27670;SDS011;15077;49.704;9.908;2023-07-30T07:45:21;2.42;;;1.70;;
27670;SDS011;15077;49.704;9.908;2023-07-30T07:47:46;1.95;;;1.42;;
27670;SDS011;15077;49.704;9.908;2023-07-30T07:50:12;2.58;;;1.80;;
27670;SDS011;15077;49.704;9.908;2023-07-30T07:52:38;2.20;;;1.77;;
27670;SDS011;15077;49.704;9.908;2023-07-30T07:55:04;2.13;;;1.83;;
27670;SDS011;15077;49.704;9.908;2023-07-30T07:57:30;2.47;;;1.60;;
27670;SDS011;15077;49.704;9.908;2023-07-30T07:59:56;1.75;;;1.50;;
27670;SDS011;15077;49.704;9.908;2023-07-30T08:02:22;1.80;;;1.52;;
27670;SDS011;15077;49.704;9.908;2023-07-30T08:04:49;1.80;;;1.50;;
27670;SDS011;15077;49.704;9.908;2023-07-30T08:07:15;1.40;;;1.10;;
27670;SDS011;15077;49.704;9.908;2023-07-30T08:09:40;2.03;;;1.20;;
27670;SDS011;15077;49.704;9.908;2023-07-30T08:12:06;1.30;;;1.15;;
27670;SDS011;15077;49.704;9.908;2023-07-30T08:14:32;1.67;;;1.35;;
27670;SDS011;15077;49.704;9.908;2023-07-30T08:16:58;2.30;;;2.10;;
27670;SDS011;15077;49.704;9.908;2023-07-30T08:19:24;1.25;;;1.05;;
27670;SDS011;15077;49.704;9.908;2023-07-30T08:21:51;1.75;;;1.20;;
27670;SDS011;15077;49.704;9.908;2023-07-30T08:24:16;2.28;;;1.17;;
27670;SDS011;15077;49.704;9.908;2023-07-30T08:26:42;1.83;;;1.20;;
27670;SDS011;15077;49.704;9.908;2023-07-30T08:29:08;1.15;;;1.02;;
27670;SDS011;15077;49.704;9.908;2023-07-30T08:31:38;1.67;;;1.25;;
27670;SDS011;15077;49.704;9.908;2023-07-30T08:34:03;1.40;;;1.25;;
27670;SDS011;15077;49.704;9.908;2023-07-30T08:36:29;3.63;;;1.27;;
27670;SDS011;15077;49.704;9.908;2023-07-30T08:38:55;1.48;;;1.13;;
27670;SDS011;15077;49.704;9.908;2023-07-30T08:41:21;1.60;;;0.95;;
27670;SDS011;15077;49.704;9.908;2023-07-30T08:43:46;1.23;;;1.00;;
27670;SDS011;15077;49.704;9.908;2023-07-30T08:46:14;1.55;;;1.23;;
27670;SDS011;15077;49.704;9.908;2023-07-30T08:48:41;2.20;;;1.33;;
27670;SDS011;15077;49.704;9.908;2023-07-30T08:51:06;2.47;;;1.50;;
27670;SDS011;15077;49.704;9.908;2023-07-30T08:53:32;1.77;;;1.00;;
27670;SDS011;15077;49.704;9.908;2023-07-30T08:55:59;2.08;;;1.00;;
27670;SDS011;15077;49.704;9.908;2023-07-30T08:58:27;1.88;;;0.98;;
27670;SDS011;15077;49.704;9.908;2023-07-30T09:00:55;2.42;;;1.15;;
27670;SDS011;15077;49.704;9.908;2023-07-30T09:03:22;1.55;;;1.25;;
27670;SDS011;15077;49.704;9.908;2023-07-30T09:05:52;2.17;;;1.02;;
27670;SDS011;15077;49.704;9.908;2023-07-30T09:08:18;1.33;;;0.90;;
27670;SDS011;15077;49.704;9.908;2023-07-30T09:10:44;2.47;;;1.42;;
27670;SDS011;15077;49.704;9.908;2023-07-30T09:13:10;1.95;;;1.35;;
27670;SDS011;15077;49.704;9.908;2023-07-30T09:15:36;2.47;;;1.10;;
27670;SDS011;15077;49.704;9.908;2023-07-30T09:18:03;1.20;;;0.82;;
27670;SDS011;15077;49.704;9.908;2023-07-30T09:20:37;1.98;;;1.05;;
27670;SDS011;15077;49.704;9.908;2023-07-30T09:23:05;2.83;;;1.27;;
27670;SDS011;15077;49.704;9.908;2023-07-30T09:25:32;1.58;;;0.95;;
27670;SDS011;15077;49.704;9.908;2023-07-30T09:27:59;1.23;;;0.88;;
27670;SDS011;15077;49.704;9.908;2023-07-30T09:30:25;1.67;;;1.42;;
27670;SDS011;15077;49.704;9.908;2023-07-30T09:32:53;2.75;;;1.15;;
27670;SDS011;15077;49.704;9.908;2023-07-30T09:35:21;2.00;;;0.90;;
27670;SDS011;15077;49.704;9.908;2023-07-30T09:37:59;1.27;;;1.00;;
27670;SDS011;15077;49.704;9.908;2023-07-30T09:40:31;1.67;;;1.30;;
27670;SDS011;15077;49.704;9.908;2023-07-30T09:42:58;2.15;;;1.25;;
27670;SDS011;15077;49.704;9.908;2023-07-30T09:45:25;0.65;;;0.65;;
27670;SDS011;15077;49.704;9.908;2023-07-30T09:47:52;1.17;;;0.88;;
27670;SDS011;15077;49.704;9.908;2023-07-30T09:50:23;1.15;;;0.85;;
27670;SDS011;15077;49.704;9.908;2023-07-30T09:52:50;1.30;;;0.60;;
27670;SDS011;15077;49.704;9.908;2023-07-30T09:55:16;0.90;;;0.80;;
27670;SDS011;15077;49.704;9.908;2023-07-30T09:57:43;0.77;;;0.55;;
27670;SDS011;15077;49.704;9.908;2023-07-30T10:00:09;1.42;;;0.93;;
27670;SDS011;15077;49.704;9.908;2023-07-30T10:02:37;1.10;;;0.90;;
27670;SDS011;15077;49.704;9.908;2023-07-30T10:05:10;1.48;;;0.85;;
27670;SDS011;15077;49.704;9.908;2023-07-30T10:08:14;1.23;;;0.90;;
27670;SDS011;15077;49.704;9.908;2023-07-30T10:10:36;1.38;;;0.80;;
27670;SDS011;15077;49.704;9.908;2023-07-30T10:13:03;1.70;;;1.10;;
27670;SDS011;15077;49.704;9.908;2023-07-30T10:15:35;1.55;;;0.90;;
27670;SDS011;15077;49.704;9.908;2023-07-30T10:18:03;1.48;;;0.93;;
27670;SDS011;15077;49.704;9.908;2023-07-30T10:20:30;1.25;;;0.93;;
27670;SDS011;15077;49.704;9.908;2023-07-30T10:22:57;1.30;;;0.88;;
27670;SDS011;15077;49.704;9.908;2023-07-30T10:28:31;4.18;;;1.50;;
27670;SDS011;15077;49.704;9.908;2023-07-30T10:31:05;2.60;;;1.30;;
27670;SDS011;15077;49.704;9.908;2023-07-30T10:33:49;2.28;;;1.60;;
27670;SDS011;15077;49.704;9.908;2023-07-30T10:36:34;1.80;;;1.60;;
27670;SDS011;15077;49.704;9.908;2023-07-30T10:39:19;2.83;;;1.92;;
27670;SDS011;15077;49.704;9.908;2023-07-30T10:41:51;2.10;;;1.40;;
27670;SDS011;15077;49.704;9.908;2023-07-30T10:44:25;3.40;;;1.90;;
27670;SDS011;15077;49.704;9.908;2023-07-30T10:46:59;2.20;;;1.75;;
27670;SDS011;15077;49.704;9.908;2023-07-30T10:49:27;1.92;;;1.63;;
27670;SDS011;15077;49.704;9.908;2023-07-30T10:51:53;2.22;;;2.00;;
27670;SDS011;15077;49.704;9.908;2023-07-30T10:54:24;2.28;;;1.92;;
27670;SDS011;15077;49.704;9.908;2023-07-30T10:56:51;3.05;;;2.33;;
27670;SDS011;15077;49.704;9.908;2023-07-30T10:59:17;2.67;;;2.10;;
27670;SDS011;15077;49.704;9.908;2023-07-30T11:01:44;3.25;;;1.88;;
27670;SDS011;15077;49.704;9.908;2023-07-30T11:06:39;2.83;;;2.10;;
27670;SDS011;15077;49.704;9.908;2023-07-30T11:09:22;1.73;;;1.38;;
27670;SDS011;15077;49.704;9.908;2023-07-30T11:11:53;2.13;;;1.20;;
27670;SDS011;15077;49.704;9.908;2023-07-30T11:14:24;2.20;;;1.48;;
27670;SDS011;15077;49.704;9.908;2023-07-30T11:16:52;4.35;;;1.70;;
27670;SDS011;15077;49.704;9.908;2023-07-30T11:19:27;1.70;;;1.30;;
27670;SDS011;15077;49.704;9.908;2023-07-30T11:21:55;2.33;;;1.65;;
27670;SDS011;15077;49.704;9.908;2023-07-30T11:24:23;1.85;;;1.42;;
27670;SDS011;15077;49.704;9.908;2023-07-30T11:27:03;3.83;;;1.58;;
27670;SDS011;15077;49.704;9.908;2023-07-30T11:29:29;1.90;;;1.40;;
27670;SDS011;15077;49.704;9.908;2023-07-30T11:31:56;2.40;;;1.48;;
27670;SDS011;15077;49.704;9.908;2023-07-30T11:34:28;3.13;;;1.90;;
27670;SDS011;15077;49.704;9.908;2023-07-30T11:36:54;1.88;;;1.58;;
27670;SDS011;15077;49.704;9.908;2023-07-30T11:39:23;4.07;;;1.88;;
27670;SDS011;15077;49.704;9.908;2023-07-30T11:41:49;2.22;;;1.38;;
27670;SDS011;15077;49.704;9.908;2023-07-30T11:44:37;1.27;;;0.80;;
27670;SDS011;15077;49.704;9.908;2023-07-30T11:47:04;2.95;;;1.35;;
27670;SDS011;15077;49.704;9.908;2023-07-30T11:49:36;1.50;;;1.10;;
27670;SDS011;15077;49.704;9.908;2023-07-30T11:54:35;1.95;;;1.00;;
27670;SDS011;15077;49.704;9.908;2023-07-30T11:57:01;3.58;;;1.02;;
27670;SDS011;15077;49.704;9.908;2023-07-30T11:59:27;1.88;;;0.90;;
27670;SDS011;15077;49.704;9.908;2023-07-30T12:01:55;1.55;;;0.88;;
27670;SDS011;15077;49.704;9.908;2023-07-30T12:04:25;1.30;;;0.80;;
27670;SDS011;15077;49.704;9.908;2023-07-30T12:07:22;1.50;;;0.90;;
27670;SDS011;15077;49.704;9.908;2023-07-30T12:09:49;1.50;;;0.77;;
27670;SDS011;15077;49.704;9.908;2023-07-30T12:12:15;1.13;;;0.80;;
27670;SDS011;15077;49.704;9.908;2023-07-30T12:17:18;0.88;;;0.52;;
27670;SDS011;15077;49.704;9.908;2023-07-30T12:19:43;1.08;;;0.70;;
27670;SDS011;15077;49.704;9.908;2023-07-30T12:22:09;1.67;;;0.70;;
27670;SDS011;15077;49.704;9.908;2023-07-30T12:24:35;1.98;;;0.80;;
27670;SDS011;15077;49.704;9.908;2023-07-30T12:27:01;0.93;;;0.70;;
27670;SDS011;15077;49.704;9.908;2023-07-30T12:29:27;1.17;;;0.50;;
27670;SDS011;15077;49.704;9.908;2023-07-30T12:31:52;0.68;;;0.45;;
27670;SDS011;15077;49.704;9.908;2023-07-30T12:34:18;0.80;;;0.45;;
27670;SDS011;15077;49.704;9.908;2023-07-30T12:36:45;1.05;;;0.60;;
27670;SDS011;15077;49.704;9.908;2023-07-30T12:39:11;1.55;;;0.55;;
27670;SDS011;15077;49.704;9.908;2023-07-30T12:41:38;1.00;;;0.50;;
27670;SDS011;15077;49.704;9.908;2023-07-30T12:44:03;1.92;;;0.77;;
27670;SDS011;15077;49.704;9.908;2023-07-30T12:46:29;3.70;;;0.55;;
27670;SDS011;15077;49.704;9.908;2023-07-30T12:48:57;1.92;;;0.60;;
27670;SDS011;15077;49.704;9.908;2023-07-30T12:51:29;0.85;;;0.50;;
27670;SDS011;15077;49.704;9.908;2023-07-30T12:53:56;2.13;;;0.60;;
27670;SDS011;15077;49.704;9.908;2023-07-30T12:56:21;0.98;;;0.57;;
27670;SDS011;15077;49.704;9.908;2023-07-30T12:58:48;2.88;;;0.80;;
27670;SDS011;15077;49.704;9.908;2023-07-30T13:01:13;0.57;;;0.47;;
27670;SDS011;15077;49.704;9.908;2023-07-30T13:03:39;1.33;;;0.47;;
27670;SDS011;15077;49.704;9.908;2023-07-30T13:06:10;0.90;;;0.60;;
27670;SDS011;15077;49.704;9.908;2023-07-30T13:08:38;2.97;;;0.68;;
27670;SDS011;15077;49.704;9.908;2023-07-30T13:11:05;1.42;;;0.63;;
27670;SDS011;15077;49.704;9.908;2023-07-30T13:13:31;1.80;;;0.60;;
27670;SDS011;15077;49.704;9.908;2023-07-30T13:15:57;1.73;;;0.50;;
27670;SDS011;15077;49.704;9.908;2023-07-30T13:18:26;1.75;;;0.60;;
27670;SDS011;15077;49.704;9.908;2023-07-30T13:20:52;4.03;;;0.70;;
27670;SDS011;15077;49.704;9.908;2023-07-30T13:23:18;1.20;;;0.60;;
27670;SDS011;15077;49.704;9.908;2023-07-30T13:25:44;1.58;;;0.60;;
27670;SDS011;15077;49.704;9.908;2023-07-30T13:28:09;1.60;;;0.70;;
27670;SDS011;15077;49.704;9.908;2023-07-30T13:30:35;2.42;;;1.00;;
27670;SDS011;15077;49.704;9.908;2023-07-30T13:33:01;1.65;;;0.68;;
27670;SDS011;15077;49.704;9.908;2023-07-30T13:35:27;3.13;;;0.85;;
27670;SDS011;15077;49.704;9.908;2023-07-30T13:37:52;1.65;;;0.88;;
27670;SDS011;15077;49.704;9.908;2023-07-30T13:40:18;1.95;;;0.80;;
27670;SDS011;15077;49.704;9.908;2023-07-30T13:42:44;1.35;;;0.77;;
27670;SDS011;15077;49.704;9.908;2023-07-30T13:45:10;1.98;;;0.90;;
27670;SDS011;15077;49.704;9.908;2023-07-30T13:47:36;2.03;;;1.02;;
27670;SDS011;15077;49.704;9.908;2023-07-30T13:50:01;1.90;;;0.80;;
27670;SDS011;15077;49.704;9.908;2023-07-30T13:52:28;1.75;;;0.60;;
27670;SDS011;15077;49.704;9.908;2023-07-30T13:54:53;1.58;;;0.73;;
27670;SDS011;15077;49.704;9.908;2023-07-30T13:57:23;3.55;;;1.15;;
27670;SDS011;15077;49.704;9.908;2023-07-30T13:59:53;2.88;;;1.00;;
27670;SDS011;15077;49.704;9.908;2023-07-30T14:02:19;3.67;;;1.15;;
27670;SDS011;15077;49.704;9.908;2023-07-30T14:04:45;1.65;;;0.93;;
27670;SDS011;15077;49.704;9.908;2023-07-30T14:07:10;1.50;;;0.82;;
27670;SDS011;15077;49.704;9.908;2023-07-30T14:09:36;2.42;;;1.00;;
27670;SDS011;15077;49.704;9.908;2023-07-30T14:12:05;1.25;;;0.80;;
27670;SDS011;15077;49.704;9.908;2023-07-30T14:14:31;3.10;;;1.20;;
27670;SDS011;15077;49.704;9.908;2023-07-30T14:16:57;1.55;;;1.02;;
27670;SDS011;15077;49.704;9.908;2023-07-30T14:19:23;2.78;;;0.98;;
27670;SDS011;15077;49.704;9.908;2023-07-30T14:21:49;2.63;;;1.05;;
27670;SDS011;15077;49.704;9.908;2023-07-30T14:24:15;2.47;;;1.35;;
27670;SDS011;15077;49.704;9.908;2023-07-30T14:26:41;2.63;;;0.98;;
27670;SDS011;15077;49.704;9.908;2023-07-30T14:29:07;3.70;;;1.10;;
27670;SDS011;15077;49.704;9.908;2023-07-30T14:31:32;2.90;;;1.23;;
27670;SDS011;15077;49.704;9.908;2023-07-30T14:33:58;1.77;;;0.70;;
27670;SDS011;15077;49.704;9.908;2023-07-30T14:36:24;2.50;;;1.08;;
27670;SDS011;15077;49.704;9.908;2023-07-30T14:38:49;1.98;;;0.70;;
27670;SDS011;15077;49.704;9.908;2023-07-30T14:41:15;2.28;;;1.00;;
27670;SDS011;15077;49.704;9.908;2023-07-30T14:43:41;2.28;;;1.10;;
27670;SDS011;15077;49.704;9.908;2023-07-30T14:46:07;1.88;;;0.80;;
27670;SDS011;15077;49.704;9.908;2023-07-30T14:48:38;1.63;;;0.70;;
27670;SDS011;15077;49.704;9.908;2023-07-30T14:51:08;2.40;;;1.15;;
27670;SDS011;15077;49.704;9.908;2023-07-30T14:53:34;3.15;;;1.00;;
27670;SDS011;15077;49.704;9.908;2023-07-30T14:56:01;1.90;;;0.98;;
27670;SDS011;15077;49.704;9.908;2023-07-30T14:58:27;2.40;;;0.80;;